sensor_id;sensor_type;location;lat;lon;timestamp;P1;durP1;ratioP1;P2;durP2;ratioP2
32812;SDS011;19162;48.254;11.454;2023-11-19T00:01:42;2.00;;;1.90;;
32812;SDS011;19162;48.254;11.454;2023-11-19T00:04:42;2.63;;;2.40;;
32812;SDS011;19162;48.254;11.454;2023-11-19T00:07:42;2.27;;;2.17;;
32812;SDS011;19162;48.254;11.454;2023-11-19T00:10:43;2.10;;;2.00;;
32812;SDS011;19162;48.254;11.454;2023-11-19T00:13:43;2.40;;;2.20;;
32812;SDS011;19162;48.254;11.454;2023-11-19T00:16:43;2.70;;;2.47;;
32812;SDS011;19162;48.254;11.454;2023-11-19T00:19:43;2.22;;;2.03;;
32812;SDS011;19162;48.254;11.454;2023-11-19T00:22:44;2.35;;;2.22;;
32812;SDS011;19162;48.254;11.454;2023-11-19T00:25:44;2.20;;;2.03;;
32812;SDS011;19162;48.254;11.454;2023-11-19T00:28:44;2.28;;;2.17;;
32812;SDS011;19162;48.254;11.454;2023-11-19T00:31:44;1.83;;;1.73;;
32812;SDS011;19162;48.254;11.454;2023-11-19T00:34:45;2.60;;;2.40;;
32812;SDS011;19162;48.254;11.454;2023-11-19T00:37:45;2.40;;;2.30;;
32812;SDS011;19162;48.254;11.454;2023-11-19T00:40:48;2.40;;;2.22;;
32812;SDS011;19162;48.254;11.454;2023-11-19T00:43:49;2.90;;;2.30;;
32812;SDS011;19162;48.254;11.454;2023-11-19T00:46:49;1.88;;;1.77;;
32812;SDS011;19162;48.254;11.454;2023-11-19T00:49:49;2.07;;;1.87;;
32812;SDS011;19162;48.254;11.454;2023-11-19T00:52:50;2.33;;;2.13;;
32812;SDS011;19162;48.254;11.454;2023-11-19T00:55:50;2.93;;;2.37;;
32812;SDS011;19162;48.254;11.454;2023-11-19T00:58:50;2.45;;;2.13;;
32812;SDS011;19162;48.254;11.454;2023-11-19T01:01:50;2.43;;;2.23;;
32812;SDS011;19162;48.254;11.454;2023-11-19T01:04:54;2.08;;;1.98;;
32812;SDS011;19162;48.254;11.454;2023-11-19T01:07:55;2.28;;;2.15;;
32812;SDS011;19162;48.254;11.454;2023-11-19T01:10:56;8.77;;;2.13;;
32812;SDS011;19162;48.254;11.454;2023-11-19T01:13:56;2.10;;;1.93;;
32812;SDS011;19162;48.254;11.454;2023-11-19T01:16:56;1.83;;;1.73;;
32812;SDS011;19162;48.254;11.454;2023-11-19T01:19:56;2.10;;;2.00;;
32812;SDS011;19162;48.254;11.454;2023-11-19T01:22:57;2.03;;;1.93;;
32812;SDS011;19162;48.254;11.454;2023-11-19T01:25:57;1.90;;;1.80;;
32812;SDS011;19162;48.254;11.454;2023-11-19T01:28:58;2.13;;;1.92;;
32812;SDS011;19162;48.254;11.454;2023-11-19T01:31:58;1.53;;;1.43;;
32812;SDS011;19162;48.254;11.454;2023-11-19T01:34:58;1.67;;;1.57;;
32812;SDS011;19162;48.254;11.454;2023-11-19T01:37:58;1.87;;;1.77;;
32812;SDS011;19162;48.254;11.454;2023-11-19T01:40:59;1.27;;;1.17;;
32812;SDS011;19162;48.254;11.454;2023-11-19T01:43:59;1.43;;;1.33;;
32812;SDS011;19162;48.254;11.454;2023-11-19T01:46:59;1.33;;;1.23;;
32812;SDS011;19162;48.254;11.454;2023-11-19T01:50:01;1.25;;;1.15;;
32812;SDS011;19162;48.254;11.454;2023-11-19T01:53:03;1.58;;;1.48;;
32812;SDS011;19162;48.254;11.454;2023-11-19T01:56:03;1.52;;;1.40;;
32812;SDS011;19162;48.254;11.454;2023-11-19T01:59:04;1.33;;;1.23;;
32812;SDS011;19162;48.254;11.454;2023-11-19T02:02:05;1.40;;;1.30;;
32812;SDS011;19162;48.254;11.454;2023-11-19T02:05:06;1.50;;;1.17;;
32812;SDS011;19162;48.254;11.454;2023-11-19T02:08:06;1.42;;;1.10;;
32812;SDS011;19162;48.254;11.454;2023-11-19T02:11:06;1.85;;;1.40;;
32812;SDS011;19162;48.254;11.454;2023-11-19T02:14:07;1.38;;;1.23;;
32812;SDS011;19162;48.254;11.454;2023-11-19T02:17:07;1.17;;;1.07;;
32812;SDS011;19162;48.254;11.454;2023-11-19T02:20:24;1.45;;;1.10;;
32812;SDS011;19162;48.254;11.454;2023-11-19T02:23:26;1.02;;;0.70;;
32812;SDS011;19162;48.254;11.454;2023-11-19T02:26:47;1.38;;;0.65;;
32812;SDS011;19162;48.254;11.454;2023-11-19T02:29:50;0.50;;;0.50;;
32812;SDS011;19162;48.254;11.454;2023-11-19T02:32:51;2.40;;;0.85;;
32812;SDS011;19162;48.254;11.454;2023-11-19T02:35:51;0.90;;;0.60;;
32812;SDS011;19162;48.254;11.454;2023-11-19T02:38:51;0.80;;;0.50;;
32812;SDS011;19162;48.254;11.454;2023-11-19T02:41:51;1.48;;;0.73;;
32812;SDS011;19162;48.254;11.454;2023-11-19T02:44:53;0.50;;;0.50;;
32812;SDS011;19162;48.254;11.454;2023-11-19T02:47:53;0.52;;;0.40;;
32812;SDS011;19162;48.254;11.454;2023-11-19T02:50:54;0.40;;;0.40;;
32812;SDS011;19162;48.254;11.454;2023-11-19T02:53:55;0.87;;;0.60;;
32812;SDS011;19162;48.254;11.454;2023-11-19T02:56:55;2.13;;;0.70;;
32812;SDS011;19162;48.254;11.454;2023-11-19T02:59:59;0.32;;;0.32;;
32812;SDS011;19162;48.254;11.454;2023-11-19T03:02:59;0.87;;;0.53;;
32812;SDS011;19162;48.254;11.454;2023-11-19T03:06:05;0.90;;;0.60;;
32812;SDS011;19162;48.254;11.454;2023-11-19T03:09:06;1.00;;;0.85;;
32812;SDS011;19162;48.254;11.454;2023-11-19T03:12:10;0.65;;;0.47;;
32812;SDS011;19162;48.254;11.454;2023-11-19T03:15:11;0.52;;;0.52;;
32812;SDS011;19162;48.254;11.454;2023-11-19T03:18:14;0.40;;;0.40;;
32812;SDS011;19162;48.254;11.454;2023-11-19T03:21:14;0.40;;;0.40;;
32812;SDS011;19162;48.254;11.454;2023-11-19T03:24:14;0.63;;;0.57;;
32812;SDS011;19162;48.254;11.454;2023-11-19T03:27:15;0.73;;;0.40;;
32812;SDS011;19162;48.254;11.454;2023-11-19T03:30:15;0.82;;;0.40;;
32812;SDS011;19162;48.254;11.454;2023-11-19T03:33:17;0.43;;;0.43;;
32812;SDS011;19162;48.254;11.454;2023-11-19T03:36:17;0.32;;;0.32;;
32812;SDS011;19162;48.254;11.454;2023-11-19T03:39:18;0.40;;;0.40;;
32812;SDS011;19162;48.254;11.454;2023-11-19T03:42:19;0.40;;;0.40;;
32812;SDS011;19162;48.254;11.454;2023-11-19T03:45:19;0.30;;;0.30;;
32812;SDS011;19162;48.254;11.454;2023-11-19T03:48:19;1.37;;;0.40;;
32812;SDS011;19162;48.254;11.454;2023-11-19T03:51:19;0.40;;;0.40;;
32812;SDS011;19162;48.254;11.454;2023-11-19T03:54:19;0.40;;;0.40;;
32812;SDS011;19162;48.254;11.454;2023-11-19T04:00:23;0.50;;;0.50;;
32812;SDS011;19162;48.254;11.454;2023-11-19T04:03:23;1.07;;;0.30;;
32812;SDS011;19162;48.254;11.454;2023-11-19T04:06:23;0.30;;;0.30;;
32812;SDS011;19162;48.254;11.454;2023-11-19T04:09:23;0.40;;;0.40;;
32812;SDS011;19162;48.254;11.454;2023-11-19T04:12:24;0.53;;;0.50;;
32812;SDS011;19162;48.254;11.454;2023-11-19T04:15:24;0.83;;;0.40;;
32812;SDS011;19162;48.254;11.454;2023-11-19T04:18:24;0.30;;;0.30;;
32812;SDS011;19162;48.254;11.454;2023-11-19T04:21:24;0.40;;;0.40;;
32812;SDS011;19162;48.254;11.454;2023-11-19T04:24:24;0.43;;;0.43;;
32812;SDS011;19162;48.254;11.454;2023-11-19T04:27:25;0.65;;;0.65;;
32812;SDS011;19162;48.254;11.454;2023-11-19T04:30:25;0.80;;;0.40;;
32812;SDS011;19162;48.254;11.454;2023-11-19T04:33:25;1.30;;;0.40;;
32812;SDS011;19162;48.254;11.454;2023-11-19T04:36:25;0.60;;;0.40;;
32812;SDS011;19162;48.254;11.454;2023-11-19T04:39:26;0.82;;;0.40;;
32812;SDS011;19162;48.254;11.454;2023-11-19T04:42:26;0.55;;;0.55;;
32812;SDS011;19162;48.254;11.454;2023-11-19T04:45:27;0.53;;;0.53;;
32812;SDS011;19162;48.254;11.454;2023-11-19T04:48:27;0.90;;;0.63;;
32812;SDS011;19162;48.254;11.454;2023-11-19T04:51:27;0.60;;;0.38;;
32812;SDS011;19162;48.254;11.454;2023-11-19T04:54:27;0.40;;;0.40;;
32812;SDS011;19162;48.254;11.454;2023-11-19T04:57:27;2.38;;;0.47;;
32812;SDS011;19162;48.254;11.454;2023-11-19T05:00:28;0.60;;;0.50;;
32812;SDS011;19162;48.254;11.454;2023-11-19T05:03:28;1.05;;;0.65;;
32812;SDS011;19162;48.254;11.454;2023-11-19T05:06:28;0.65;;;0.43;;
32812;SDS011;19162;48.254;11.454;2023-11-19T05:09:31;0.38;;;0.38;;
32812;SDS011;19162;48.254;11.454;2023-11-19T05:12:32;0.50;;;0.50;;
32812;SDS011;19162;48.254;11.454;2023-11-19T05:15:32;1.23;;;0.60;;
32812;SDS011;19162;48.254;11.454;2023-11-19T05:18:33;0.60;;;0.50;;
32812;SDS011;19162;48.254;11.454;2023-11-19T05:21:33;0.68;;;0.57;;
32812;SDS011;19162;48.254;11.454;2023-11-19T05:24:34;0.55;;;0.43;;
32812;SDS011;19162;48.254;11.454;2023-11-19T05:27:36;2.15;;;0.85;;
32812;SDS011;19162;48.254;11.454;2023-11-19T05:30:36;0.65;;;0.55;;
32812;SDS011;19162;48.254;11.454;2023-11-19T05:33:36;0.50;;;0.50;;
32812;SDS011;19162;48.254;11.454;2023-11-19T05:36:36;1.13;;;0.50;;
32812;SDS011;19162;48.254;11.454;2023-11-19T05:39:36;0.80;;;0.80;;
32812;SDS011;19162;48.254;11.454;2023-11-19T05:42:37;0.75;;;0.57;;
32812;SDS011;19162;48.254;11.454;2023-11-19T05:45:37;0.60;;;0.57;;
32812;SDS011;19162;48.254;11.454;2023-11-19T05:48:37;0.70;;;0.70;;
32812;SDS011;19162;48.254;11.454;2023-11-19T05:51:38;0.60;;;0.60;;
32812;SDS011;19162;48.254;11.454;2023-11-19T05:54:38;0.50;;;0.50;;
32812;SDS011;19162;48.254;11.454;2023-11-19T05:57:39;0.73;;;0.60;;
32812;SDS011;19162;48.254;11.454;2023-11-19T06:00:40;1.08;;;0.50;;
32812;SDS011;19162;48.254;11.454;2023-11-19T06:03:40;0.73;;;0.73;;
32812;SDS011;19162;48.254;11.454;2023-11-19T06:06:42;1.20;;;0.73;;
32812;SDS011;19162;48.254;11.454;2023-11-19T06:09:43;0.77;;;0.60;;
32812;SDS011;19162;48.254;11.454;2023-11-19T06:12:44;0.60;;;0.50;;
32812;SDS011;19162;48.254;11.454;2023-11-19T06:15:46;1.42;;;0.70;;
32812;SDS011;19162;48.254;11.454;2023-11-19T06:18:46;0.70;;;0.40;;
32812;SDS011;19162;48.254;11.454;2023-11-19T06:21:46;0.60;;;0.50;;
32812;SDS011;19162;48.254;11.454;2023-11-19T06:24:46;0.50;;;0.50;;
32812;SDS011;19162;48.254;11.454;2023-11-19T06:27:47;1.75;;;0.57;;
32812;SDS011;19162;48.254;11.454;2023-11-19T06:30:47;0.93;;;0.40;;
32812;SDS011;19162;48.254;11.454;2023-11-19T06:33:48;0.43;;;0.43;;
32812;SDS011;19162;48.254;11.454;2023-11-19T06:36:48;0.50;;;0.50;;
32812;SDS011;19162;48.254;11.454;2023-11-19T06:39:48;0.93;;;0.60;;
32812;SDS011;19162;48.254;11.454;2023-11-19T06:42:49;1.48;;;0.60;;
32812;SDS011;19162;48.254;11.454;2023-11-19T06:45:49;0.60;;;0.60;;
32812;SDS011;19162;48.254;11.454;2023-11-19T06:48:49;0.80;;;0.60;;
32812;SDS011;19162;48.254;11.454;2023-11-19T06:51:49;0.77;;;0.77;;
32812;SDS011;19162;48.254;11.454;2023-11-19T06:54:49;0.63;;;0.63;;
32812;SDS011;19162;48.254;11.454;2023-11-19T06:57:50;0.52;;;0.52;;
32812;SDS011;19162;48.254;11.454;2023-11-19T07:00:50;0.70;;;0.70;;
32812;SDS011;19162;48.254;11.454;2023-11-19T07:03:51;0.82;;;0.55;;
32812;SDS011;19162;48.254;11.454;2023-11-19T07:06:51;1.20;;;0.70;;
32812;SDS011;19162;48.254;11.454;2023-11-19T07:09:53;0.93;;;0.73;;
32812;SDS011;19162;48.254;11.454;2023-11-19T07:12:53;0.53;;;0.53;;
32812;SDS011;19162;48.254;11.454;2023-11-19T07:15:55;0.50;;;0.50;;
32812;SDS011;19162;48.254;11.454;2023-11-19T07:18:56;0.68;;;0.68;;
32812;SDS011;19162;48.254;11.454;2023-11-19T07:21:56;0.50;;;0.50;;
32812;SDS011;19162;48.254;11.454;2023-11-19T07:24:56;0.70;;;0.60;;
32812;SDS011;19162;48.254;11.454;2023-11-19T07:27:56;0.80;;;0.70;;
32812;SDS011;19162;48.254;11.454;2023-11-19T07:30:57;0.30;;;0.30;;
32812;SDS011;19162;48.254;11.454;2023-11-19T07:33:57;0.70;;;0.60;;
32812;SDS011;19162;48.254;11.454;2023-11-19T07:36:57;0.50;;;0.30;;
32812;SDS011;19162;48.254;11.454;2023-11-19T07:39:59;0.40;;;0.40;;
32812;SDS011;19162;48.254;11.454;2023-11-19T07:42:59;0.40;;;0.40;;
32812;SDS011;19162;48.254;11.454;2023-11-19T07:45:59;0.45;;;0.45;;
32812;SDS011;19162;48.254;11.454;2023-11-19T07:49:00;0.47;;;0.40;;
32812;SDS011;19162;48.254;11.454;2023-11-19T07:52:00;1.70;;;0.57;;
32812;SDS011;19162;48.254;11.454;2023-11-19T07:55:00;0.32;;;0.30;;
32812;SDS011;19162;48.254;11.454;2023-11-19T07:58:01;0.50;;;0.50;;
32812;SDS011;19162;48.254;11.454;2023-11-19T08:01:01;0.53;;;0.53;;
32812;SDS011;19162;48.254;11.454;2023-11-19T08:04:02;0.38;;;0.30;;
32812;SDS011;19162;48.254;11.454;2023-11-19T08:07:02;0.30;;;0.30;;
32812;SDS011;19162;48.254;11.454;2023-11-19T08:10:02;0.40;;;0.40;;
32812;SDS011;19162;48.254;11.454;2023-11-19T08:13:02;0.40;;;0.40;;
32812;SDS011;19162;48.254;11.454;2023-11-19T08:16:03;0.50;;;0.47;;
32812;SDS011;19162;48.254;11.454;2023-11-19T08:19:03;0.30;;;0.30;;
32812;SDS011;19162;48.254;11.454;2023-11-19T08:22:03;0.88;;;0.57;;
32812;SDS011;19162;48.254;11.454;2023-11-19T08:25:06;0.32;;;0.30;;
32812;SDS011;19162;48.254;11.454;2023-11-19T08:28:06;1.38;;;0.47;;
32812;SDS011;19162;48.254;11.454;2023-11-19T08:31:06;0.30;;;0.30;;
32812;SDS011;19162;48.254;11.454;2023-11-19T08:34:07;0.50;;;0.40;;
32812;SDS011;19162;48.254;11.454;2023-11-19T08:37:08;0.40;;;0.40;;
32812;SDS011;19162;48.254;11.454;2023-11-19T08:40:09;0.40;;;0.40;;
32812;SDS011;19162;48.254;11.454;2023-11-19T08:43:09;0.43;;;0.43;;
32812;SDS011;19162;48.254;11.454;2023-11-19T08:46:12;0.52;;;0.52;;
32812;SDS011;19162;48.254;11.454;2023-11-19T08:49:13;0.90;;;0.80;;
32812;SDS011;19162;48.254;11.454;2023-11-19T08:52:13;0.40;;;0.40;;
32812;SDS011;19162;48.254;11.454;2023-11-19T08:55:13;0.40;;;0.40;;
32812;SDS011;19162;48.254;11.454;2023-11-19T08:58:13;0.32;;;0.32;;
32812;SDS011;19162;48.254;11.454;2023-11-19T09:01:13;0.50;;;0.50;;
32812;SDS011;19162;48.254;11.454;2023-11-19T09:04:14;0.53;;;0.53;;
32812;SDS011;19162;48.254;11.454;2023-11-19T09:07:14;0.40;;;0.40;;
32812;SDS011;19162;48.254;11.454;2023-11-19T09:10:14;1.00;;;0.70;;
32812;SDS011;19162;48.254;11.454;2023-11-19T09:13:14;0.80;;;0.40;;
32812;SDS011;19162;48.254;11.454;2023-11-19T09:16:15;0.73;;;0.52;;
32812;SDS011;19162;48.254;11.454;2023-11-19T09:19:15;0.50;;;0.45;;
32812;SDS011;19162;48.254;11.454;2023-11-19T09:22:17;0.68;;;0.60;;
32812;SDS011;19162;48.254;11.454;2023-11-19T09:25:17;0.67;;;0.60;;
32812;SDS011;19162;48.254;11.454;2023-11-19T09:28:17;0.82;;;0.70;;
32812;SDS011;19162;48.254;11.454;2023-11-19T09:31:18;0.70;;;0.70;;
32812;SDS011;19162;48.254;11.454;2023-11-19T09:34:18;0.52;;;0.52;;
32812;SDS011;19162;48.254;11.454;2023-11-19T09:37:18;1.83;;;1.40;;
32812;SDS011;19162;48.254;11.454;2023-11-19T09:40:18;2.50;;;2.30;;
32812;SDS011;19162;48.254;11.454;2023-11-19T09:43:20;0.73;;;0.73;;
32812;SDS011;19162;48.254;11.454;2023-11-19T09:46:22;0.60;;;0.60;;
32812;SDS011;19162;48.254;11.454;2023-11-19T09:49:24;0.73;;;0.73;;
32812;SDS011;19162;48.254;11.454;2023-11-19T09:52:26;1.63;;;1.52;;
32812;SDS011;19162;48.254;11.454;2023-11-19T09:55:26;1.98;;;1.88;;
32812;SDS011;19162;48.254;11.454;2023-11-19T09:58:26;0.70;;;0.70;;
32812;SDS011;19162;48.254;11.454;2023-11-19T10:01:26;1.63;;;1.53;;
32812;SDS011;19162;48.254;11.454;2023-11-19T10:04:29;2.25;;;2.15;;
32812;SDS011;19162;48.254;11.454;2023-11-19T10:07:30;0.80;;;0.80;;
32812;SDS011;19162;48.254;11.454;2023-11-19T10:10:30;0.88;;;0.88;;
32812;SDS011;19162;48.254;11.454;2023-11-19T10:13:30;2.70;;;2.50;;
32812;SDS011;19162;48.254;11.454;2023-11-19T10:16:31;1.75;;;0.88;;
32812;SDS011;19162;48.254;11.454;2023-11-19T10:19:34;0.70;;;0.60;;
32812;SDS011;19162;48.254;11.454;2023-11-19T10:22:36;3.55;;;0.75;;
32812;SDS011;19162;48.254;11.454;2023-11-19T10:25:36;1.80;;;1.45;;
32812;SDS011;19162;48.254;11.454;2023-11-19T10:28:40;3.38;;;3.08;;
32812;SDS011;19162;48.254;11.454;2023-11-19T10:31:55;1.95;;;1.27;;
32812;SDS011;19162;48.254;11.454;2023-11-19T10:35:04;1.70;;;1.60;;
32812;SDS011;19162;48.254;11.454;2023-11-19T10:38:14;2.53;;;2.33;;
32812;SDS011;19162;48.254;11.454;2023-11-19T10:41:30;1.90;;;1.75;;
32812;SDS011;19162;48.254;11.454;2023-11-19T10:44:31;0.95;;;0.90;;
32812;SDS011;19162;48.254;11.454;2023-11-19T10:47:32;1.83;;;1.52;;
32812;SDS011;19162;48.254;11.454;2023-11-19T10:50:36;3.00;;;1.05;;
32812;SDS011;19162;48.254;11.454;2023-11-19T10:53:37;0.88;;;0.88;;
32812;SDS011;19162;48.254;11.454;2023-11-19T10:56:37;1.33;;;1.08;;
32812;SDS011;19162;48.254;11.454;2023-11-19T10:59:38;1.08;;;0.88;;
32812;SDS011;19162;48.254;11.454;2023-11-19T11:02:40;0.57;;;0.52;;
32812;SDS011;19162;48.254;11.454;2023-11-19T11:05:41;0.60;;;0.60;;
32812;SDS011;19162;48.254;11.454;2023-11-19T11:08:42;0.75;;;0.60;;
32812;SDS011;19162;48.254;11.454;2023-11-19T11:11:46;0.63;;;0.57;;
32812;SDS011;19162;48.254;11.454;2023-11-19T11:14:47;0.35;;;0.30;;
32812;SDS011;19162;48.254;11.454;2023-11-19T11:17:48;0.50;;;0.40;;
32812;SDS011;19162;48.254;11.454;2023-11-19T11:20:49;1.65;;;0.98;;
32812;SDS011;19162;48.254;11.454;2023-11-19T11:23:56;0.60;;;0.40;;
32812;SDS011;19162;48.254;11.454;2023-11-19T11:40:00;0.60;;;0.60;;
32812;SDS011;19162;48.254;11.454;2023-11-19T11:43:01;0.40;;;0.30;;
32812;SDS011;19162;48.254;11.454;2023-11-19T11:46:01;0.90;;;0.70;;
32812;SDS011;19162;48.254;11.454;2023-11-19T11:49:07;0.73;;;0.50;;
32812;SDS011;19162;48.254;11.454;2023-11-19T11:52:07;0.50;;;0.50;;
32812;SDS011;19162;48.254;11.454;2023-11-19T11:55:08;0.88;;;0.57;;
32812;SDS011;19162;48.254;11.454;2023-11-19T11:58:09;0.77;;;0.60;;
32812;SDS011;19162;48.254;11.454;2023-11-19T12:01:10;1.92;;;1.75;;
32812;SDS011;19162;48.254;11.454;2023-11-19T12:04:19;6.13;;;5.47;;
32812;SDS011;19162;48.254;11.454;2023-11-19T12:07:20;0.40;;;0.40;;
32812;SDS011;19162;48.254;11.454;2023-11-19T12:10:21;0.83;;;0.83;;
32812;SDS011;19162;48.254;11.454;2023-11-19T12:13:22;4.22;;;4.00;;
32812;SDS011;19162;48.254;11.454;2023-11-19T12:16:22;4.07;;;3.87;;
32812;SDS011;19162;48.254;11.454;2023-11-19T12:19:22;4.43;;;4.13;;
32812;SDS011;19162;48.254;11.454;2023-11-19T12:22:24;5.87;;;5.37;;
32812;SDS011;19162;48.254;11.454;2023-11-19T12:25:24;22.70;;;20.85;;
32812;SDS011;19162;48.254;11.454;2023-11-19T12:28:25;9.52;;;8.68;;
32812;SDS011;19162;48.254;11.454;2023-11-19T12:31:27;16.48;;;14.77;;
32812;SDS011;19162;48.254;11.454;2023-11-19T12:34:27;7.88;;;6.22;;
32812;SDS011;19162;48.254;11.454;2023-11-19T12:37:27;1.65;;;0.93;;
32812;SDS011;19162;48.254;11.454;2023-11-19T12:40:29;4.10;;;3.80;;
32812;SDS011;19162;48.254;11.454;2023-11-19T12:43:29;1.17;;;1.08;;
32812;SDS011;19162;48.254;11.454;2023-11-19T12:46:29;0.80;;;0.80;;
32812;SDS011;19162;48.254;11.454;2023-11-19T12:49:30;1.58;;;1.48;;
32812;SDS011;19162;48.254;11.454;2023-11-19T12:52:30;3.92;;;3.05;;
32812;SDS011;19162;48.254;11.454;2023-11-19T12:55:30;6.50;;;5.17;;
32812;SDS011;19162;48.254;11.454;2023-11-19T12:58:35;2.13;;;1.90;;
32812;SDS011;19162;48.254;11.454;2023-11-19T13:01:39;1.23;;;1.13;;
32812;SDS011;19162;48.254;11.454;2023-11-19T13:04:41;3.47;;;3.17;;
32812;SDS011;19162;48.254;11.454;2023-11-19T13:07:41;4.10;;;2.90;;
32812;SDS011;19162;48.254;11.454;2023-11-19T13:10:51;1.90;;;1.30;;
32812;SDS011;19162;48.254;11.454;2023-11-19T13:13:53;2.40;;;1.45;;
32812;SDS011;19162;48.254;11.454;2023-11-19T13:16:53;4.32;;;3.10;;
32812;SDS011;19162;48.254;11.454;2023-11-19T13:19:54;4.65;;;2.78;;
32812;SDS011;19162;48.254;11.454;2023-11-19T13:23:00;2.95;;;1.88;;
32812;SDS011;19162;48.254;11.454;2023-11-19T13:26:01;1.48;;;1.00;;
32812;SDS011;19162;48.254;11.454;2023-11-19T13:29:01;2.10;;;1.90;;
32812;SDS011;19162;48.254;11.454;2023-11-19T13:32:01;4.20;;;2.30;;
32812;SDS011;19162;48.254;11.454;2023-11-19T13:35:04;1.90;;;1.50;;
32812;SDS011;19162;48.254;11.454;2023-11-19T13:38:04;1.77;;;1.20;;
32812;SDS011;19162;48.254;11.454;2023-11-19T13:41:05;0.90;;;0.52;;
32812;SDS011;19162;48.254;11.454;2023-11-19T13:44:05;1.10;;;0.90;;
32812;SDS011;19162;48.254;11.454;2023-11-19T13:47:05;0.93;;;0.50;;
32812;SDS011;19162;48.254;11.454;2023-11-19T13:50:05;1.03;;;0.70;;
32812;SDS011;19162;48.254;11.454;2023-11-19T13:53:06;0.85;;;0.65;;
32812;SDS011;19162;48.254;11.454;2023-11-19T13:56:06;0.50;;;0.50;;
32812;SDS011;19162;48.254;11.454;2023-11-19T13:59:06;0.75;;;0.65;;
32812;SDS011;19162;48.254;11.454;2023-11-19T14:02:08;0.70;;;0.60;;
32812;SDS011;19162;48.254;11.454;2023-11-19T14:05:09;1.02;;;0.57;;
32812;SDS011;19162;48.254;11.454;2023-11-19T14:08:10;0.70;;;0.60;;
32812;SDS011;19162;48.254;11.454;2023-11-19T14:11:14;1.75;;;1.00;;
32812;SDS011;19162;48.254;11.454;2023-11-19T14:14:14;0.87;;;0.60;;
32812;SDS011;19162;48.254;11.454;2023-11-19T14:17:14;2.30;;;0.50;;
32812;SDS011;19162;48.254;11.454;2023-11-19T14:20:15;0.63;;;0.63;;
32812;SDS011;19162;48.254;11.454;2023-11-19T14:23:17;0.55;;;0.47;;
32812;SDS011;19162;48.254;11.454;2023-11-19T14:26:17;0.60;;;0.60;;
32812;SDS011;19162;48.254;11.454;2023-11-19T14:29:17;0.40;;;0.40;;
32812;SDS011;19162;48.254;11.454;2023-11-19T14:32:18;0.50;;;0.40;;
32812;SDS011;19162;48.254;11.454;2023-11-19T14:35:18;0.35;;;0.35;;
32812;SDS011;19162;48.254;11.454;2023-11-19T14:38:20;1.33;;;0.50;;
32812;SDS011;19162;48.254;11.454;2023-11-19T14:41:20;2.53;;;0.87;;
32812;SDS011;19162;48.254;11.454;2023-11-19T14:44:20;0.25;;;0.25;;
32812;SDS011;19162;48.254;11.454;2023-11-19T14:47:21;0.65;;;0.63;;
32812;SDS011;19162;48.254;11.454;2023-11-19T14:50:21;0.57;;;0.50;;
32812;SDS011;19162;48.254;11.454;2023-11-19T14:53:21;0.70;;;0.60;;
32812;SDS011;19162;48.254;11.454;2023-11-19T14:56:22;2.38;;;0.57;;
32812;SDS011;19162;48.254;11.454;2023-11-19T14:59:22;0.77;;;0.73;;
32812;SDS011;19162;48.254;11.454;2023-11-19T15:02:22;0.45;;;0.35;;
32812;SDS011;19162;48.254;11.454;2023-11-19T15:05:23;0.88;;;0.55;;
32812;SDS011;19162;48.254;11.454;2023-11-19T15:08:23;0.52;;;0.47;;
32812;SDS011;19162;48.254;11.454;2023-11-19T15:11:23;0.50;;;0.50;;
32812;SDS011;19162;48.254;11.454;2023-11-19T15:14:23;1.00;;;0.50;;
32812;SDS011;19162;48.254;11.454;2023-11-19T15:17:24;0.43;;;0.43;;
32812;SDS011;19162;48.254;11.454;2023-11-19T15:20:24;0.57;;;0.55;;
32812;SDS011;19162;48.254;11.454;2023-11-19T15:23:24;0.73;;;0.60;;
32812;SDS011;19162;48.254;11.454;2023-11-19T15:26:25;1.87;;;0.50;;
32812;SDS011;19162;48.254;11.454;2023-11-19T15:29:25;0.60;;;0.50;;
32812;SDS011;19162;48.254;11.454;2023-11-19T15:32:25;0.47;;;0.40;;
32812;SDS011;19162;48.254;11.454;2023-11-19T15:35:26;0.40;;;0.40;;
32812;SDS011;19162;48.254;11.454;2023-11-19T15:38:26;1.13;;;0.90;;
32812;SDS011;19162;48.254;11.454;2023-11-19T15:41:26;0.77;;;0.77;;
32812;SDS011;19162;48.254;11.454;2023-11-19T15:44:27;1.08;;;0.90;;
32812;SDS011;19162;48.254;11.454;2023-11-19T15:47:28;3.55;;;1.15;;
32812;SDS011;19162;48.254;11.454;2023-11-19T15:50:29;2.67;;;2.47;;
32812;SDS011;19162;48.254;11.454;2023-11-19T15:53:29;1.70;;;1.10;;
32812;SDS011;19162;48.254;11.454;2023-11-19T15:56:30;2.22;;;1.50;;
32812;SDS011;19162;48.254;11.454;2023-11-19T15:59:31;1.10;;;1.00;;
32812;SDS011;19162;48.254;11.454;2023-11-19T16:02:31;1.40;;;1.10;;
32812;SDS011;19162;48.254;11.454;2023-11-19T16:05:31;4.20;;;2.30;;
32812;SDS011;19162;48.254;11.454;2023-11-19T16:08:31;1.25;;;0.90;;
32812;SDS011;19162;48.254;11.454;2023-11-19T16:11:32;1.70;;;1.07;;
32812;SDS011;19162;48.254;11.454;2023-11-19T16:14:32;1.10;;;1.00;;
32812;SDS011;19162;48.254;11.454;2023-11-19T16:17:32;1.52;;;0.95;;
32812;SDS011;19162;48.254;11.454;2023-11-19T16:20:34;1.37;;;1.07;;
32812;SDS011;19162;48.254;11.454;2023-11-19T16:23:34;0.90;;;0.90;;
32812;SDS011;19162;48.254;11.454;2023-11-19T16:26:35;1.38;;;0.80;;
32812;SDS011;19162;48.254;11.454;2023-11-19T16:29:36;1.60;;;1.15;;
32812;SDS011;19162;48.254;11.454;2023-11-19T16:32:47;1.60;;;1.38;;
32812;SDS011;19162;48.254;11.454;2023-11-19T16:35:48;1.60;;;1.23;;
32812;SDS011;19162;48.254;11.454;2023-11-19T16:38:48;1.30;;;1.08;;
32812;SDS011;19162;48.254;11.454;2023-11-19T16:41:48;1.90;;;1.80;;
32812;SDS011;19162;48.254;11.454;2023-11-19T16:44:48;1.60;;;1.50;;
32812;SDS011;19162;48.254;11.454;2023-11-19T16:47:49;3.80;;;1.75;;
32812;SDS011;19162;48.254;11.454;2023-11-19T16:50:50;1.63;;;1.30;;
32812;SDS011;19162;48.254;11.454;2023-11-19T16:53:50;1.13;;;1.02;;
32812;SDS011;19162;48.254;11.454;2023-11-19T16:56:50;0.65;;;0.57;;
32812;SDS011;19162;48.254;11.454;2023-11-19T16:59:50;0.90;;;0.90;;
32812;SDS011;19162;48.254;11.454;2023-11-19T17:02:55;1.70;;;1.00;;
32812;SDS011;19162;48.254;11.454;2023-11-19T17:05:59;0.60;;;0.60;;
32812;SDS011;19162;48.254;11.454;2023-11-19T17:08:59;3.77;;;1.30;;
32812;SDS011;19162;48.254;11.454;2023-11-19T17:11:59;1.90;;;0.98;;
32812;SDS011;19162;48.254;11.454;2023-11-19T17:14:59;1.25;;;1.15;;
32812;SDS011;19162;48.254;11.454;2023-11-19T17:18:03;0.90;;;0.90;;
32812;SDS011;19162;48.254;11.454;2023-11-19T17:21:05;1.02;;;0.82;;
32812;SDS011;19162;48.254;11.454;2023-11-19T17:24:05;1.13;;;1.08;;
32812;SDS011;19162;48.254;11.454;2023-11-19T17:27:05;2.15;;;0.82;;
32812;SDS011;19162;48.254;11.454;2023-11-19T17:30:05;1.10;;;1.00;;
32812;SDS011;19162;48.254;11.454;2023-11-19T17:33:06;1.52;;;0.80;;
32812;SDS011;19162;48.254;11.454;2023-11-19T17:36:06;1.10;;;0.85;;
32812;SDS011;19162;48.254;11.454;2023-11-19T17:39:06;1.83;;;0.70;;
32812;SDS011;19162;48.254;11.454;2023-11-19T17:42:07;0.70;;;0.70;;
32812;SDS011;19162;48.254;11.454;2023-11-19T17:45:08;0.70;;;0.50;;
32812;SDS011;19162;48.254;11.454;2023-11-19T17:48:09;1.88;;;0.90;;
32812;SDS011;19162;48.254;11.454;2023-11-19T17:51:09;1.02;;;0.90;;
32812;SDS011;19162;48.254;11.454;2023-11-19T17:54:09;1.17;;;1.02;;
32812;SDS011;19162;48.254;11.454;2023-11-19T17:57:10;2.03;;;1.00;;
32812;SDS011;19162;48.254;11.454;2023-11-19T18:00:12;1.00;;;0.77;;
32812;SDS011;19162;48.254;11.454;2023-11-19T18:03:16;0.60;;;0.60;;
32812;SDS011;19162;48.254;11.454;2023-11-19T18:06:17;1.52;;;1.17;;
32812;SDS011;19162;48.254;11.454;2023-11-19T18:09:17;1.20;;;1.10;;